sensor_id;sensor_type;location;lat;lon;timestamp;temperature;humidity
20400;DHT22;10359;53.596;22.520;2023-06-14T00:00:45;12.00;99.90
20400;DHT22;10359;53.596;22.520;2023-06-14T00:03:18;12.00;99.90
20400;DHT22;10359;53.596;22.520;2023-06-14T00:05:50;12.00;99.90
20400;DHT22;10359;53.596;22.520;2023-06-14T00:08:19;11.90;99.90
20400;DHT22;10359;53.596;22.520;2023-06-14T00:10:50;11.90;99.90
20400;DHT22;10359;53.596;22.520;2023-06-14T00:13:20;11.90;99.90
20400;DHT22;10359;53.596;22.520;2023-06-14T00:15:50;12.00;99.90
20400;DHT22;10359;53.596;22.520;2023-06-14T00:18:24;12.00;99.90
20400;DHT22;10359;53.596;22.520;2023-06-14T00:20:54;12.10;99.90
20400;DHT22;10359;53.596;22.520;2023-06-14T00:23:30;12.10;99.90
20400;DHT22;10359;53.596;22.520;2023-06-14T00:26:06;12.20;99.90
20400;DHT22;10359;53.596;22.520;2023-06-14T00:28:36;12.30;99.90
20400;DHT22;10359;53.596;22.520;2023-06-14T00:31:06;12.40;99.90
20400;DHT22;10359;53.596;22.520;2023-06-14T00:33:37;12.50;99.90
20400;DHT22;10359;53.596;22.520;2023-06-14T00:36:07;12.50;99.90
20400;DHT22;10359;53.596;22.520;2023-06-14T00:38:38;12.50;99.90
20400;DHT22;10359;53.596;22.520;2023-06-14T00:41:12;12.60;99.90
20400;DHT22;10359;53.596;22.520;2023-06-14T00:43:41;12.60;99.90
20400;DHT22;10359;53.596;22.520;2023-06-14T00:46:11;12.70;99.90
20400;DHT22;10359;53.596;22.520;2023-06-14T00:48:42;12.70;99.90
20400;DHT22;10359;53.596;22.520;2023-06-14T00:51:12;12.70;99.90
20400;DHT22;10359;53.596;22.520;2023-06-14T00:53:42;12.80;99.90
20400;DHT22;10359;53.596;22.520;2023-06-14T00:56:15;12.80;99.90
20400;DHT22;10359;53.596;22.520;2023-06-14T00:58:45;12.80;99.90
20400;DHT22;10359;53.596;22.520;2023-06-14T01:01:14;12.80;99.90
20400;DHT22;10359;53.596;22.520;2023-06-14T01:03:46;12.80;99.90
20400;DHT22;10359;53.596;22.520;2023-06-14T01:06:21;12.80;99.90
20400;DHT22;10359;53.596;22.520;2023-06-14T01:09:04;12.80;99.90
20400;DHT22;10359;53.596;22.520;2023-06-14T01:11:41;12.90;99.90
20400;DHT22;10359;53.596;22.520;2023-06-14T01:14:14;12.90;99.90
20400;DHT22;10359;53.596;22.520;2023-06-14T01:16:47;12.90;99.90
20400;DHT22;10359;53.596;22.520;2023-06-14T01:19:23;13.00;99.90
20400;DHT22;10359;53.596;22.520;2023-06-14T01:22:01;13.00;99.90
20400;DHT22;10359;53.596;22.520;2023-06-14T01:24:39;13.00;99.90
20400;DHT22;10359;53.596;22.520;2023-06-14T01:27:17;13.10;99.90
20400;DHT22;10359;53.596;22.520;2023-06-14T01:29:55;13.10;99.90
20400;DHT22;10359;53.596;22.520;2023-06-14T01:32:32;13.00;99.90
20400;DHT22;10359;53.596;22.520;2023-06-14T01:35:16;13.00;99.90
20400;DHT22;10359;53.596;22.520;2023-06-14T01:37:55;13.10;99.90
20400;DHT22;10359;53.596;22.520;2023-06-14T01:40:36;13.00;99.90
20400;DHT22;10359;53.596;22.520;2023-06-14T01:43:13;13.00;99.90
20400;DHT22;10359;53.596;22.520;2023-06-14T01:45:52;13.00;99.90
20400;DHT22;10359;53.596;22.520;2023-06-14T01:48:32;13.00;99.90
20400;DHT22;10359;53.596;22.520;2023-06-14T01:51:09;13.00;99.90
20400;DHT22;10359;53.596;22.520;2023-06-14T01:53:47;13.00;99.90
20400;DHT22;10359;53.596;22.520;2023-06-14T01:56:23;13.00;99.90
20400;DHT22;10359;53.596;22.520;2023-06-14T01:58:54;12.90;99.90
20400;DHT22;10359;53.596;22.520;2023-06-14T02:01:24;12.90;99.90
20400;DHT22;10359;53.596;22.520;2023-06-14T02:04:00;12.90;99.90
20400;DHT22;10359;53.596;22.520;2023-06-14T02:06:29;12.90;99.90
20400;DHT22;10359;53.596;22.520;2023-06-14T02:09:00;12.90;99.90
20400;DHT22;10359;53.596;22.520;2023-06-14T02:11:31;12.90;99.90
20400;DHT22;10359;53.596;22.520;2023-06-14T02:14:01;12.90;99.90
20400;DHT22;10359;53.596;22.520;2023-06-14T02:16:30;12.90;99.90
20400;DHT22;10359;53.596;22.520;2023-06-14T02:19:00;12.90;99.90
20400;DHT22;10359;53.596;22.520;2023-06-14T02:21:30;13.00;99.90
20400;DHT22;10359;53.596;22.520;2023-06-14T02:23:59;13.00;99.90
20400;DHT22;10359;53.596;22.520;2023-06-14T02:26:31;13.00;99.90
20400;DHT22;10359;53.596;22.520;2023-06-14T02:29:00;13.10;99.90
20400;DHT22;10359;53.596;22.520;2023-06-14T02:31:30;13.10;99.90
20400;DHT22;10359;53.596;22.520;2023-06-14T02:33:59;13.10;99.90
20400;DHT22;10359;53.596;22.520;2023-06-14T02:36:29;13.00;99.90
20400;DHT22;10359;53.596;22.520;2023-06-14T02:38:58;13.00;99.90
20400;DHT22;10359;53.596;22.520;2023-06-14T02:41:33;13.10;99.90
20400;DHT22;10359;53.596;22.520;2023-06-14T02:44:07;13.10;99.90
20400;DHT22;10359;53.596;22.520;2023-06-14T02:46:36;13.10;99.90
20400;DHT22;10359;53.596;22.520;2023-06-14T02:49:05;13.20;99.90
20400;DHT22;10359;53.596;22.520;2023-06-14T02:51:35;13.20;99.90
20400;DHT22;10359;53.596;22.520;2023-06-14T02:54:04;13.20;99.90
20400;DHT22;10359;53.596;22.520;2023-06-14T02:56:35;13.20;99.90
20400;DHT22;10359;53.596;22.520;2023-06-14T02:59:04;13.20;99.90
20400;DHT22;10359;53.596;22.520;2023-06-14T03:01:34;13.20;99.90
20400;DHT22;10359;53.596;22.520;2023-06-14T03:04:03;13.30;99.90
20400;DHT22;10359;53.596;22.520;2023-06-14T03:06:33;13.30;99.90
20400;DHT22;10359;53.596;22.520;2023-06-14T03:09:03;13.40;99.90
20400;DHT22;10359;53.596;22.520;2023-06-14T03:11:35;13.40;99.90
20400;DHT22;10359;53.596;22.520;2023-06-14T03:14:04;13.50;99.90
20400;DHT22;10359;53.596;22.520;2023-06-14T03:16:35;13.50;99.90
20400;DHT22;10359;53.596;22.520;2023-06-14T03:19:05;13.60;99.90
20400;DHT22;10359;53.596;22.520;2023-06-14T03:21:34;13.70;99.90
20400;DHT22;10359;53.596;22.520;2023-06-14T03:24:04;13.80;99.90
20400;DHT22;10359;53.596;22.520;2023-06-14T03:26:35;13.90;99.90
20400;DHT22;10359;53.596;22.520;2023-06-14T03:29:04;13.90;99.90
20400;DHT22;10359;53.596;22.520;2023-06-14T03:31:34;14.00;99.90
20400;DHT22;10359;53.596;22.520;2023-06-14T03:34:04;14.00;99.90
20400;DHT22;10359;53.596;22.520;2023-06-14T03:36:33;14.10;99.90
20400;DHT22;10359;53.596;22.520;2023-06-14T03:39:02;14.10;99.90
20400;DHT22;10359;53.596;22.520;2023-06-14T03:41:32;14.20;99.90
20400;DHT22;10359;53.596;22.520;2023-06-14T03:44:03;14.40;99.90
20400;DHT22;10359;53.596;22.520;2023-06-14T03:46:32;14.50;99.90
20400;DHT22;10359;53.596;22.520;2023-06-14T03:49:01;14.60;99.90
20400;DHT22;10359;53.596;22.520;2023-06-14T03:51:31;14.70;99.90
20400;DHT22;10359;53.596;22.520;2023-06-14T03:54:04;14.70;99.90
20400;DHT22;10359;53.596;22.520;2023-06-14T03:56:53;14.90;99.90
20400;DHT22;10359;53.596;22.520;2023-06-14T03:59:24;15.00;99.90
20400;DHT22;10359;53.596;22.520;2023-06-14T04:01:54;15.10;99.90
20400;DHT22;10359;53.596;22.520;2023-06-14T04:04:24;15.20;99.90
20400;DHT22;10359;53.596;22.520;2023-06-14T04:06:56;15.30;99.90
20400;DHT22;10359;53.596;22.520;2023-06-14T04:09:28;15.60;99.90
20400;DHT22;10359;53.596;22.520;2023-06-14T04:11:58;15.70;99.90
20400;DHT22;10359;53.596;22.520;2023-06-14T04:14:29;15.90;99.90
20400;DHT22;10359;53.596;22.520;2023-06-14T04:17:00;16.00;99.90
20400;DHT22;10359;53.596;22.520;2023-06-14T04:19:31;16.20;99.90
20400;DHT22;10359;53.596;22.520;2023-06-14T04:22:00;16.30;99.90
20400;DHT22;10359;53.596;22.520;2023-06-14T04:24:30;16.50;99.90
20400;DHT22;10359;53.596;22.520;2023-06-14T04:27:02;16.50;99.90
20400;DHT22;10359;53.596;22.520;2023-06-14T04:29:33;16.50;99.90
20400;DHT22;10359;53.596;22.520;2023-06-14T04:32:04;16.60;99.90
20400;DHT22;10359;53.596;22.520;2023-06-14T04:34:34;16.60;99.90
20400;DHT22;10359;53.596;22.520;2023-06-14T04:37:05;16.80;99.90
20400;DHT22;10359;53.596;22.520;2023-06-14T04:39:35;17.00;99.90
20400;DHT22;10359;53.596;22.520;2023-06-14T04:42:05;17.10;99.90
20400;DHT22;10359;53.596;22.520;2023-06-14T04:44:37;17.30;99.90
20400;DHT22;10359;53.596;22.520;2023-06-14T04:47:07;17.50;99.90
20400;DHT22;10359;53.596;22.520;2023-06-14T04:49:37;17.50;99.90
20400;DHT22;10359;53.596;22.520;2023-06-14T04:52:07;17.60;99.90
20400;DHT22;10359;53.596;22.520;2023-06-14T04:54:37;17.70;99.90
20400;DHT22;10359;53.596;22.520;2023-06-14T04:57:10;17.80;99.90
20400;DHT22;10359;53.596;22.520;2023-06-14T05:04:01;17.80;99.90
20400;DHT22;10359;53.596;22.520;2023-06-14T05:06:31;17.90;99.90
20400;DHT22;10359;53.596;22.520;2023-06-14T05:09:00;18.00;99.90
20400;DHT22;10359;53.596;22.520;2023-06-14T05:11:29;18.20;99.90
20400;DHT22;10359;53.596;22.520;2023-06-14T05:13:59;18.50;99.90
20400;DHT22;10359;53.596;22.520;2023-06-14T05:28:31;18.90;99.90
20400;DHT22;10359;53.596;22.520;2023-06-14T05:31:00;19.70;99.90
20400;DHT22;10359;53.596;22.520;2023-06-14T05:33:30;19.80;99.90
20400;DHT22;10359;53.596;22.520;2023-06-14T05:35:59;19.80;99.90
20400;DHT22;10359;53.596;22.520;2023-06-14T05:38:28;19.90;99.90
20400;DHT22;10359;53.596;22.520;2023-06-14T05:40:57;20.10;99.90
20400;DHT22;10359;53.596;22.520;2023-06-14T05:43:27;20.30;99.90
20400;DHT22;10359;53.596;22.520;2023-06-14T05:45:58;20.30;99.90
20400;DHT22;10359;53.596;22.520;2023-06-14T05:48:27;20.50;99.90
20400;DHT22;10359;53.596;22.520;2023-06-14T05:50:59;20.60;99.90
20400;DHT22;10359;53.596;22.520;2023-06-14T05:53:29;20.50;99.90
20400;DHT22;10359;53.596;22.520;2023-06-14T05:55:58;20.70;99.90
20400;DHT22;10359;53.596;22.520;2023-06-14T05:58:27;20.80;99.90
20400;DHT22;10359;53.596;22.520;2023-06-14T06:00:58;20.90;99.90
20400;DHT22;10359;53.596;22.520;2023-06-14T06:03:27;20.90;99.90
20400;DHT22;10359;53.596;22.520;2023-06-14T06:05:58;21.00;99.90
20400;DHT22;10359;53.596;22.520;2023-06-14T06:08:27;21.50;99.90
20400;DHT22;10359;53.596;22.520;2023-06-14T06:10:56;21.90;99.90
20400;DHT22;10359;53.596;22.520;2023-06-14T06:13:25;21.90;99.90
20400;DHT22;10359;53.596;22.520;2023-06-14T06:15:56;22.40;99.90
20400;DHT22;10359;53.596;22.520;2023-06-14T06:18:26;22.10;99.90
20400;DHT22;10359;53.596;22.520;2023-06-14T06:20:55;22.30;99.90
20400;DHT22;10359;53.596;22.520;2023-06-14T06:23:25;21.90;99.90
20400;DHT22;10359;53.596;22.520;2023-06-14T06:25:55;22.20;99.90
20400;DHT22;10359;53.596;22.520;2023-06-14T06:28:24;22.00;99.90
20400;DHT22;10359;53.596;22.520;2023-06-14T06:30:53;21.90;99.90
20400;DHT22;10359;53.596;22.520;2023-06-14T06:33:24;21.80;99.90
20400;DHT22;10359;53.596;22.520;2023-06-14T06:35:54;22.00;99.90
20400;DHT22;10359;53.596;22.520;2023-06-14T06:38:23;21.90;99.90
20400;DHT22;10359;53.596;22.520;2023-06-14T06:40:53;22.10;99.90
20400;DHT22;10359;53.596;22.520;2023-06-14T06:43:24;22.20;99.90
20400;DHT22;10359;53.596;22.520;2023-06-14T06:45:53;21.70;99.90
20400;DHT22;10359;53.596;22.520;2023-06-14T06:48:24;21.80;99.90
20400;DHT22;10359;53.596;22.520;2023-06-14T06:50:54;21.70;99.90
20400;DHT22;10359;53.596;22.520;2023-06-14T06:53:23;21.60;99.90
20400;DHT22;10359;53.596;22.520;2023-06-14T06:56:06;21.70;99.90
20400;DHT22;10359;53.596;22.520;2023-06-14T06:58:35;21.70;99.90
20400;DHT22;10359;53.596;22.520;2023-06-14T07:01:05;21.60;99.90
20400;DHT22;10359;53.596;22.520;2023-06-14T07:03:36;21.70;99.90
20400;DHT22;10359;53.596;22.520;2023-06-14T07:06:05;21.60;99.90
20400;DHT22;10359;53.596;22.520;2023-06-14T07:08:35;21.60;99.90
20400;DHT22;10359;53.596;22.520;2023-06-14T07:11:06;21.20;99.90
20400;DHT22;10359;53.596;22.520;2023-06-14T07:13:36;21.10;99.90
20400;DHT22;10359;53.596;22.520;2023-06-14T07:16:05;20.90;99.90
20400;DHT22;10359;53.596;22.520;2023-06-14T07:18:36;21.00;99.90
20400;DHT22;10359;53.596;22.520;2023-06-14T07:21:05;21.00;99.90
20400;DHT22;10359;53.596;22.520;2023-06-14T07:23:35;21.20;99.90
20400;DHT22;10359;53.596;22.520;2023-06-14T07:26:05;21.10;99.90
20400;DHT22;10359;53.596;22.520;2023-06-14T07:28:34;21.20;99.90
20400;DHT22;10359;53.596;22.520;2023-06-14T07:31:06;21.50;99.90
20400;DHT22;10359;53.596;22.520;2023-06-14T07:33:37;22.10;99.90
20400;DHT22;10359;53.596;22.520;2023-06-14T07:36:07;21.90;99.90
20400;DHT22;10359;53.596;22.520;2023-06-14T07:38:37;22.10;99.90
20400;DHT22;10359;53.596;22.520;2023-06-14T07:41:08;22.30;99.90
20400;DHT22;10359;53.596;22.520;2023-06-14T07:43:37;22.20;99.90
20400;DHT22;10359;53.596;22.520;2023-06-14T07:46:06;22.40;99.90
20400;DHT22;10359;53.596;22.520;2023-06-14T07:48:38;22.20;99.90
20400;DHT22;10359;53.596;22.520;2023-06-14T07:51:08;21.80;99.90
20400;DHT22;10359;53.596;22.520;2023-06-14T07:53:37;22.20;99.90
20400;DHT22;10359;53.596;22.520;2023-06-14T07:56:08;22.50;99.90
20400;DHT22;10359;53.596;22.520;2023-06-14T07:58:38;22.10;99.90
20400;DHT22;10359;53.596;22.520;2023-06-14T08:01:09;21.90;99.90
20400;DHT22;10359;53.596;22.520;2023-06-14T08:03:40;21.50;99.90
20400;DHT22;10359;53.596;22.520;2023-06-14T08:06:10;21.30;99.90
20400;DHT22;10359;53.596;22.520;2023-06-14T08:08:39;21.10;99.90
20400;DHT22;10359;53.596;22.520;2023-06-14T08:11:09;20.70;99.90
20400;DHT22;10359;53.596;22.520;2023-06-14T08:13:38;20.60;99.90
20400;DHT22;10359;53.596;22.520;2023-06-14T08:16:07;20.10;99.90
20400;DHT22;10359;53.596;22.520;2023-06-14T08:18:37;19.90;99.90
20400;DHT22;10359;53.596;22.520;2023-06-14T08:21:07;19.70;99.90
20400;DHT22;10359;53.596;22.520;2023-06-14T08:23:37;19.60;99.90
20400;DHT22;10359;53.596;22.520;2023-06-14T08:26:06;19.40;99.90
20400;DHT22;10359;53.596;22.520;2023-06-14T08:28:35;19.40;99.90
20400;DHT22;10359;53.596;22.520;2023-06-14T08:31:05;19.30;99.90
20400;DHT22;10359;53.596;22.520;2023-06-14T08:33:34;19.30;99.90
20400;DHT22;10359;53.596;22.520;2023-06-14T08:36:04;19.20;99.90
20400;DHT22;10359;53.596;22.520;2023-06-14T08:38:35;18.90;99.90
20400;DHT22;10359;53.596;22.520;2023-06-14T08:41:06;18.50;99.90
20400;DHT22;10359;53.596;22.520;2023-06-14T08:43:35;18.10;99.90
20400;DHT22;10359;53.596;22.520;2023-06-14T08:46:06;17.80;99.90
20400;DHT22;10359;53.596;22.520;2023-06-14T08:48:39;17.40;99.90
20400;DHT22;10359;53.596;22.520;2023-06-14T08:51:10;17.10;99.90
20400;DHT22;10359;53.596;22.520;2023-06-14T08:53:43;16.90;99.90
20400;DHT22;10359;53.596;22.520;2023-06-14T08:56:13;16.50;99.90
20400;DHT22;10359;53.596;22.520;2023-06-14T08:58:44;16.50;99.90
20400;DHT22;10359;53.596;22.520;2023-06-14T09:01:14;16.40;99.90
20400;DHT22;10359;53.596;22.520;2023-06-14T09:03:45;16.30;99.90
20400;DHT22;10359;53.596;22.520;2023-06-14T09:06:16;16.10;99.90
20400;DHT22;10359;53.596;22.520;2023-06-14T09:08:48;16.10;99.90
20400;DHT22;10359;53.596;22.520;2023-06-14T09:11:19;16.20;99.90
20400;DHT22;10359;53.596;22.520;2023-06-14T09:13:49;16.20;99.90
20400;DHT22;10359;53.596;22.520;2023-06-14T09:16:18;16.30;99.90
20400;DHT22;10359;53.596;22.520;2023-06-14T09:18:48;16.40;99.90
20400;DHT22;10359;53.596;22.520;2023-06-14T09:21:18;16.50;99.90
20400;DHT22;10359;53.596;22.520;2023-06-14T09:23:49;16.70;99.90
20400;DHT22;10359;53.596;22.520;2023-06-14T09:26:19;16.90;99.90
20400;DHT22;10359;53.596;22.520;2023-06-14T09:28:52;17.10;99.90
20400;DHT22;10359;53.596;22.520;2023-06-14T09:31:22;17.20;99.90
20400;DHT22;10359;53.596;22.520;2023-06-14T09:33:52;17.30;99.90
20400;DHT22;10359;53.596;22.520;2023-06-14T09:36:25;17.40;99.90
20400;DHT22;10359;53.596;22.520;2023-06-14T09:38:57;17.50;99.90
20400;DHT22;10359;53.596;22.520;2023-06-14T09:41:31;17.60;99.90
20400;DHT22;10359;53.596;22.520;2023-06-14T09:44:02;17.80;99.90
20400;DHT22;10359;53.596;22.520;2023-06-14T09:46:36;17.80;99.90
20400;DHT22;10359;53.596;22.520;2023-06-14T09:49:06;17.80;99.90
20400;DHT22;10359;53.596;22.520;2023-06-14T09:51:42;17.80;99.90
20400;DHT22;10359;53.596;22.520;2023-06-14T09:54:16;17.90;99.90
20400;DHT22;10359;53.596;22.520;2023-06-14T09:56:51;18.00;99.90
20400;DHT22;10359;53.596;22.520;2023-06-14T09:59:24;18.30;99.90
20400;DHT22;10359;53.596;22.520;2023-06-14T10:01:58;19.00;99.90
20400;DHT22;10359;53.596;22.520;2023-06-14T10:04:31;20.00;99.90
20400;DHT22;10359;53.596;22.520;2023-06-14T10:07:04;20.50;99.90
20400;DHT22;10359;53.596;22.520;2023-06-14T10:09:36;21.10;99.90
20400;DHT22;10359;53.596;22.520;2023-06-14T10:12:07;21.50;99.90
20400;DHT22;10359;53.596;22.520;2023-06-14T10:14:38;21.70;99.90
20400;DHT22;10359;53.596;22.520;2023-06-14T10:17:10;21.90;99.90
20400;DHT22;10359;53.596;22.520;2023-06-14T10:19:44;22.10;99.90
20400;DHT22;10359;53.596;22.520;2023-06-14T10:22:29;22.00;99.90
20400;DHT22;10359;53.596;22.520;2023-06-14T10:25:02;22.30;99.90
20400;DHT22;10359;53.596;22.520;2023-06-14T10:27:39;22.30;99.90
20400;DHT22;10359;53.596;22.520;2023-06-14T10:30:15;22.40;99.90
20400;DHT22;10359;53.596;22.520;2023-06-14T10:33:04;22.80;99.90
20400;DHT22;10359;53.596;22.520;2023-06-14T10:35:34;23.00;99.90
20400;DHT22;10359;53.596;22.520;2023-06-14T10:38:08;22.30;99.90
20400;DHT22;10359;53.596;22.520;2023-06-14T10:40:39;22.70;99.90
20400;DHT22;10359;53.596;22.520;2023-06-14T10:43:21;22.70;99.90
20400;DHT22;10359;53.596;22.520;2023-06-14T10:46:16;22.50;99.90
20400;DHT22;10359;53.596;22.520;2023-06-14T10:48:45;22.80;99.90
20400;DHT22;10359;53.596;22.520;2023-06-14T10:51:19;23.10;99.90
20400;DHT22;10359;53.596;22.520;2023-06-14T10:53:50;23.60;99.90
20400;DHT22;10359;53.596;22.520;2023-06-14T10:56:30;23.50;99.90
20400;DHT22;10359;53.596;22.520;2023-06-14T10:58:59;24.30;99.90
20400;DHT22;10359;53.596;22.520;2023-06-14T11:01:37;24.60;99.90
20400;DHT22;10359;53.596;22.520;2023-06-14T11:04:09;24.80;99.90
20400;DHT22;10359;53.596;22.520;2023-06-14T11:06:47;24.90;99.90
20400;DHT22;10359;53.596;22.520;2023-06-14T11:09:51;24.70;99.90
20400;DHT22;10359;53.596;22.520;2023-06-14T11:12:25;24.20;99.90
20400;DHT22;10359;53.596;22.520;2023-06-14T11:14:57;24.30;99.90
20400;DHT22;10359;53.596;22.520;2023-06-14T11:17:26;24.60;99.90
20400;DHT22;10359;53.596;22.520;2023-06-14T11:20:10;24.50;99.90
20400;DHT22;10359;53.596;22.520;2023-06-14T11:22:49;24.90;99.90
20400;DHT22;10359;53.596;22.520;2023-06-14T11:25:18;24.70;99.90
20400;DHT22;10359;53.596;22.520;2023-06-14T11:27:51;24.90;99.90
20400;DHT22;10359;53.596;22.520;2023-06-14T11:30:20;24.50;99.90
20400;DHT22;10359;53.596;22.520;2023-06-14T11:32:51;24.60;99.90
20400;DHT22;10359;53.596;22.520;2023-06-14T11:35:25;24.70;99.90
20400;DHT22;10359;53.596;22.520;2023-06-14T11:37:55;25.30;99.90
20400;DHT22;10359;53.596;22.520;2023-06-14T11:40:25;24.60;99.90
20400;DHT22;10359;53.596;22.520;2023-06-14T11:43:00;24.80;99.90
20400;DHT22;10359;53.596;22.520;2023-06-14T11:45:31;25.00;99.90
20400;DHT22;10359;53.596;22.520;2023-06-14T11:48:00;24.90;99.90
20400;DHT22;10359;53.596;22.520;2023-06-14T11:50:30;24.80;99.90
20400;DHT22;10359;53.596;22.520;2023-06-14T11:52:59;24.30;99.90
20400;DHT22;10359;53.596;22.520;2023-06-14T11:55:36;24.30;99.90
20400;DHT22;10359;53.596;22.520;2023-06-14T11:58:08;24.00;99.90
20400;DHT22;10359;53.596;22.520;2023-06-14T12:00:39;24.50;99.90
20400;DHT22;10359;53.596;22.520;2023-06-14T12:03:09;24.90;99.90
20400;DHT22;10359;53.596;22.520;2023-06-14T12:05:40;24.80;99.90
20400;DHT22;10359;53.596;22.520;2023-06-14T12:08:09;24.80;99.90
20400;DHT22;10359;53.596;22.520;2023-06-14T12:10:44;25.20;99.90
20400;DHT22;10359;53.596;22.520;2023-06-14T12:13:17;24.70;99.90
20400;DHT22;10359;53.596;22.520;2023-06-14T12:15:54;24.90;99.90
20400;DHT22;10359;53.596;22.520;2023-06-14T12:18:32;24.80;99.90
20400;DHT22;10359;53.596;22.520;2023-06-14T12:21:04;24.80;99.90
20400;DHT22;10359;53.596;22.520;2023-06-14T12:23:43;24.80;99.90
20400;DHT22;10359;53.596;22.520;2023-06-14T12:26:14;24.50;99.90
20400;DHT22;10359;53.596;22.520;2023-06-14T12:28:47;24.80;99.90
20400;DHT22;10359;53.596;22.520;2023-06-14T12:31:16;24.70;99.90
20400;DHT22;10359;53.596;22.520;2023-06-14T12:33:46;24.40;99.90
20400;DHT22;10359;53.596;22.520;2023-06-14T12:36:17;24.50;99.90
20400;DHT22;10359;53.596;22.520;2023-06-14T12:38:47;24.70;99.90
20400;DHT22;10359;53.596;22.520;2023-06-14T12:41:17;24.70;99.90
20400;DHT22;10359;53.596;22.520;2023-06-14T12:43:48;24.90;99.90
20400;DHT22;10359;53.596;22.520;2023-06-14T12:46:17;24.90;99.90
20400;DHT22;10359;53.596;22.520;2023-06-14T12:48:47;25.10;99.90
20400;DHT22;10359;53.596;22.520;2023-06-14T12:51:16;25.20;99.90
20400;DHT22;10359;53.596;22.520;2023-06-14T12:53:46;25.00;99.90
20400;DHT22;10359;53.596;22.520;2023-06-14T12:56:16;24.80;99.90
20400;DHT22;10359;53.596;22.520;2023-06-14T12:58:49;24.70;99.90
20400;DHT22;10359;53.596;22.520;2023-06-14T13:01:19;24.90;99.90
20400;DHT22;10359;53.596;22.520;2023-06-14T13:03:48;24.70;99.90
20400;DHT22;10359;53.596;22.520;2023-06-14T13:06:21;24.80;99.90
20400;DHT22;10359;53.596;22.520;2023-06-14T13:08:52;24.90;99.90
20400;DHT22;10359;53.596;22.520;2023-06-14T13:11:25;25.10;99.90
20400;DHT22;10359;53.596;22.520;2023-06-14T13:13:56;25.20;99.90
20400;DHT22;10359;53.596;22.520;2023-06-14T13:16:27;25.50;99.90
20400;DHT22;10359;53.596;22.520;2023-06-14T13:18:56;25.70;99.90
20400;DHT22;10359;53.596;22.520;2023-06-14T13:21:26;25.80;99.90
20400;DHT22;10359;53.596;22.520;2023-06-14T13:23:55;26.10;99.90
20400;DHT22;10359;53.596;22.520;2023-06-14T13:26:25;26.70;99.90
20400;DHT22;10359;53.596;22.520;2023-06-14T13:28:56;26.50;99.90
20400;DHT22;10359;53.596;22.520;2023-06-14T13:31:25;26.40;99.90
20400;DHT22;10359;53.596;22.520;2023-06-14T13:33:54;26.00;99.90
20400;DHT22;10359;53.596;22.520;2023-06-14T13:36:26;25.60;99.90
20400;DHT22;10359;53.596;22.520;2023-06-14T13:39:00;25.20;99.90
20400;DHT22;10359;53.596;22.520;2023-06-14T13:41:29;24.90;99.90
20400;DHT22;10359;53.596;22.520;2023-06-14T13:44:03;24.80;99.90
20400;DHT22;10359;53.596;22.520;2023-06-14T13:46:33;24.50;99.90
20400;DHT22;10359;53.596;22.520;2023-06-14T13:49:03;24.20;99.90
20400;DHT22;10359;53.596;22.520;2023-06-14T13:51:33;23.90;99.90
20400;DHT22;10359;53.596;22.520;2023-06-14T13:54:03;23.50;99.90
20400;DHT22;10359;53.596;22.520;2023-06-14T13:56:32;23.40;99.90
20400;DHT22;10359;53.596;22.520;2023-06-14T13:59:03;23.40;99.90
20400;DHT22;10359;53.596;22.520;2023-06-14T14:01:32;23.40;99.90
20400;DHT22;10359;53.596;22.520;2023-06-14T14:04:02;23.10;99.90
20400;DHT22;10359;53.596;22.520;2023-06-14T14:06:32;22.90;99.90
20400;DHT22;10359;53.596;22.520;2023-06-14T14:09:03;22.70;99.90
20400;DHT22;10359;53.596;22.520;2023-06-14T14:11:32;22.50;99.90
20400;DHT22;10359;53.596;22.520;2023-06-14T14:14:04;22.30;99.90
20400;DHT22;10359;53.596;22.520;2023-06-14T14:16:33;22.00;99.90
20400;DHT22;10359;53.596;22.520;2023-06-14T14:19:05;21.90;99.90
20400;DHT22;10359;53.596;22.520;2023-06-14T14:21:34;21.90;99.90
20400;DHT22;10359;53.596;22.520;2023-06-14T14:24:05;21.90;99.90
20400;DHT22;10359;53.596;22.520;2023-06-14T14:26:34;21.90;99.90
20400;DHT22;10359;53.596;22.520;2023-06-14T14:29:05;21.80;99.90
20400;DHT22;10359;53.596;22.520;2023-06-14T14:31:34;22.00;99.90
20400;DHT22;10359;53.596;22.520;2023-06-14T14:34:04;22.00;99.90
20400;DHT22;10359;53.596;22.520;2023-06-14T14:36:33;22.20;99.90
20400;DHT22;10359;53.596;22.520;2023-06-14T14:39:05;22.40;99.90
20400;DHT22;10359;53.596;22.520;2023-06-14T14:41:34;22.70;99.90
20400;DHT22;10359;53.596;22.520;2023-06-14T14:44:10;23.00;99.90
20400;DHT22;10359;53.596;22.520;2023-06-14T14:46:39;23.20;99.90
20400;DHT22;10359;53.596;22.520;2023-06-14T14:49:09;23.50;99.90
20400;DHT22;10359;53.596;22.520;2023-06-14T14:51:38;23.50;99.90
20400;DHT22;10359;53.596;22.520;2023-06-14T14:54:08;23.70;99.90
20400;DHT22;10359;53.596;22.520;2023-06-14T14:56:37;23.90;99.90
20400;DHT22;10359;53.596;22.520;2023-06-14T14:59:07;23.80;99.90
20400;DHT22;10359;53.596;22.520;2023-06-14T15:01:38;24.00;99.90
20400;DHT22;10359;53.596;22.520;2023-06-14T15:04:08;24.20;99.90
20400;DHT22;10359;53.596;22.520;2023-06-14T15:06:38;24.20;99.90
20400;DHT22;10359;53.596;22.520;2023-06-14T15:09:08;24.50;99.90
20400;DHT22;10359;53.596;22.520;2023-06-14T15:11:37;24.60;99.90
20400;DHT22;10359;53.596;22.520;2023-06-14T15:14:07;24.70;99.90
20400;DHT22;10359;53.596;22.520;2023-06-14T15:16:38;24.30;99.90
20400;DHT22;10359;53.596;22.520;2023-06-14T15:19:08;24.60;99.90
20400;DHT22;10359;53.596;22.520;2023-06-14T15:21:37;24.80;99.90
20400;DHT22;10359;53.596;22.520;2023-06-14T15:24:07;24.70;99.90
20400;DHT22;10359;53.596;22.520;2023-06-14T15:26:36;25.00;99.90
20400;DHT22;10359;53.596;22.520;2023-06-14T15:29:06;24.90;99.90
20400;DHT22;10359;53.596;22.520;2023-06-14T15:31:35;24.70;99.90
20400;DHT22;10359;53.596;22.520;2023-06-14T15:34:06;24.70;99.90
20400;DHT22;10359;53.596;22.520;2023-06-14T15:36:35;24.70;99.90
20400;DHT22;10359;53.596;22.520;2023-06-14T15:39:04;24.60;99.90
20400;DHT22;10359;53.596;22.520;2023-06-14T15:41:34;24.40;99.90
20400;DHT22;10359;53.596;22.520;2023-06-14T15:44:04;24.10;99.90
20400;DHT22;10359;53.596;22.520;2023-06-14T15:46:33;24.00;99.90
20400;DHT22;10359;53.596;22.520;2023-06-14T15:49:10;23.90;99.90
20400;DHT22;10359;53.596;22.520;2023-06-14T15:51:41;23.80;99.90
20400;DHT22;10359;53.596;22.520;2023-06-14T15:54:11;23.90;99.90
20400;DHT22;10359;53.596;22.520;2023-06-14T15:56:40;23.90;99.90